Time;durP1;ratioP1;P1;durP2;ratioP2;P2;SDS_P1;SDS_P2;PMS_P1;PMS_P2;Temp;Humidity;BMP_temperature;BMP_pressure;BME280_temperature;BME280_humidity;BME280_pressure;Samples;Min_cycle;Max_cycle;Signal;HPM_P1;HPM_P2
2022/04/18 00:02:27;;;;;;;5.10;2.98;;;;;;;3.55;56.84;101337.18;1730351;81;25743;-62
2022/04/18 00:04:54;;;;;;;5.30;2.47;;;;;;;3.53;56.75;101329.29;1730055;82;25808;-61
2022/04/18 00:07:21;;;;;;;5.47;2.35;;;;;;;3.56;56.81;101327.81;1730169;82;25741;-61
2022/04/18 00:09:48;;;;;;;6.20;2.75;;;;;;;3.57;56.41;101319.35;1730120;81;27392;-61
2022/04/18 00:12:14;;;;;;;3.72;2.25;;;;;;;3.60;56.17;101324.05;1730592;82;25654;-61
2022/04/18 00:14:41;;;;;;;4.92;3.10;;;;;;;3.60;55.99;101321.87;1730134;81;25801;-61
2022/04/18 00:17:09;;;;;;;6.60;2.72;;;;;;;3.59;55.84;101312.16;1730479;81;25816;-61
2022/04/18 00:19:37;;;;;;;6.08;2.45;;;;;;;3.59;55.73;101309.50;1730403;82;25767;-61
2022/04/18 00:22:06;;;;;;;5.78;2.70;;;;;;;3.58;55.71;101307.32;1731057;81;27448;-62
2022/04/18 00:24:34;;;;;;;5.53;2.47;;;;;;;3.51;55.82;101301.05;1705168;82;25760;-61
2022/04/18 00:27:01;;;;;;;6.22;2.92;;;;;;;3.41;55.91;101301.51;1741132;82;25551;-61
2022/04/18 00:29:28;;;;;;;5.78;2.50;;;;;;;3.32;56.00;101304.63;1707019;82;26336;-62
2022/04/18 00:31:55;;;;;;;4.12;2.80;;;;;;;3.32;56.04;101301.97;1749245;80;25788;-61
2022/04/18 00:34:22;;;;;;;3.83;2.47;;;;;;;3.31;56.21;101302.91;1749017;80;27496;-61
2022/04/18 00:36:49;;;;;;;6.08;2.85;;;;;;;3.27;56.25;101294.22;1748855;80;25790;-62
2022/04/18 00:39:16;;;;;;;3.83;2.40;;;;;;;3.25;56.12;101292.58;1748964;82;25699;-61
2022/04/18 00:41:43;;;;;;;6.65;3.33;;;;;;;3.22;56.12;101294.05;1748608;81;25747;-61
2022/04/18 00:44:10;;;;;;;3.02;2.27;;;;;;;3.17;56.36;101297.41;1749150;82;25717;-61
2022/04/18 00:46:36;;;;;;;3.25;2.20;;;;;;;3.14;56.50;101294.41;1749327;81;27734;-61
2022/04/18 00:49:03;;;;;;;5.17;2.72;;;;;;;3.14;56.30;101290.42;1756380;80;25811;-61
2022/04/18 00:51:30;;;;;;;9.98;2.87;;;;;;;3.09;56.52;101293.31;1730090;82;25755;-62
2022/04/18 00:53:59;;;;;;;4.62;2.20;;;;;;;3.05;56.48;101285.11;1729965;82;25812;-62
2022/04/18 00:56:26;;;;;;;4.30;2.47;;;;;;;3.05;56.43;101289.09;1729904;82;25700;-62
2022/04/18 00:58:55;;;;;;;5.30;2.72;;;;;;;3.02;56.51;101277.27;1742376;80;27393;-61
2022/04/18 01:01:23;;;;;;;4.95;2.98;;;;;;;3.00;56.44;101287.14;1748857;82;25800;-61
2022/04/18 01:03:52;;;;;;;4.40;2.47;;;;;;;3.01;56.49;101280.86;1748773;80;25768;-61
2022/04/18 01:06:20;;;;;;;6.87;2.55;;;;;;;2.99;56.53;101276.11;1748767;82;25791;-61
2022/04/18 01:08:49;;;;;;;5.62;3.02;;;;;;;3.01;56.37;101276.88;1749014;80;25654;-61
2022/04/18 01:11:17;;;;;;;4.47;2.72;;;;;;;3.00;56.54;101267.66;1748680;82;27486;-61
2022/04/18 01:14:02;;;;;;;3.33;2.37;;;;;;;2.92;56.88;101272.89;1748790;80;25756;-61
2022/04/18 01:16:48;;;;;;;4.45;2.72;;;;;;;2.82;56.92;101273.78;1748916;80;25772;-62
2022/04/18 01:19:22;;;;;;;4.60;2.80;;;;;;;2.77;57.28;101268.32;1746941;81;26413;-62
2022/04/18 01:21:55;;;;;;;5.85;3.40;;;;;;;2.69;57.06;101265.17;1748994;82;25795;-62
2022/04/18 01:30:18;;;;;;;3.98;2.80;;;;;;;2.71;57.50;101264.16;1751217;80;25527;-61
2022/04/18 01:32:45;;;;;;;5.67;2.75;;;;;;;2.71;57.56;101268.14;1718432;83;25499;-61
2022/04/18 01:35:12;;;;;;;8.38;2.80;;;;;;;2.66;57.31;101262.17;1718184;83;25947;-61
2022/04/18 01:37:40;;;;;;;3.25;2.45;;;;;;;2.69;57.40;101257.20;1718426;83;28488;-61
2022/04/18 01:40:11;;;;;;;7.20;2.77;;;;;;;2.70;57.26;101254.46;1718284;83;25630;-61
2022/04/18 01:42:38;;;;;;;4.87;3.33;;;;;;;2.75;57.32;101247.12;1718357;83;25677;-61
2022/04/18 01:45:08;;;;;;;6.62;2.70;;;;;;;2.80;57.42;101241.58;1718092;83;25798;-61
2022/04/18 01:47:35;;;;;;;3.25;2.40;;;;;;;2.77;57.45;101240.42;1716100;83;25824;-61
2022/04/18 01:50:05;;;;;;;9.53;2.75;;;;;;;2.74;57.65;101240.56;1718323;82;27703;-61
2022/04/18 01:52:32;;;;;;;4.72;2.62;;;;;;;2.72;57.63;101239.77;1731207;82;25765;-61
2022/04/18 01:54:59;;;;;;;5.42;2.95;;;;;;;2.74;58.14;101236.09;1730578;82;26110;-61
2022/04/18 01:57:27;;;;;;;5.97;2.25;;;;;;;2.66;57.67;101232.95;1705431;82;25757;-61
2022/04/18 01:59:54;;;;;;;5.33;2.52;;;;;;;2.68;57.75;101234.22;1718039;83;25820;-62
2022/04/18 02:02:21;;;;;;;5.50;2.65;;;;;;;2.71;57.76;101229.62;1718542;83;27586;-61
2022/04/18 02:04:48;;;;;;;2.98;2.27;;;;;;;2.73;57.75;101221.56;1718209;83;25512;-61
2022/04/18 02:07:16;;;;;;;5.72;2.95;;;;;;;2.74;57.56;101221.96;1718348;82;25878;-61
2022/04/18 02:09:45;;;;;;;4.22;2.58;;;;;;;2.73;57.56;101227.75;1717540;83;25751;-61
2022/04/18 02:12:12;;;;;;;5.20;2.60;;;;;;;2.72;57.53;101226.48;1718077;83;25489;-62
2022/04/18 02:14:40;;;;;;;4.85;2.45;;;;;;;2.64;57.53;101219.75;1715706;82;27528;-61
2022/04/18 02:17:07;;;;;;;5.25;3.27;;;;;;;2.57;57.59;101218.78;1718188;83;25783;-61
2022/04/18 02:19:34;;;;;;;4.92;2.87;;;;;;;2.44;58.02;101226.02;1718341;83;25752;-61
2022/04/18 02:22:01;;;;;;;4.15;2.65;;;;;;;2.26;58.60;101223.74;1718191;83;25712;-61
2022/04/18 02:24:28;;;;;;;8.23;2.75;;;;;;;2.08;58.68;101218.84;1683894;83;25815;-62
2022/04/18 02:26:55;;;;;;;3.65;2.95;;;;;;;1.94;59.55;101216.81;1684258;85;28261;-62
2022/04/18 02:29:22;;;;;;;5.17;3.00;;;;;;;1.81;59.97;101224.91;1683868;83;25525;-61
2022/04/18 02:34:34;;;;;;;3.52;2.45;;;;;;;1.58;60.36;101212.22;1673937;84;26166;-61
2022/04/18 02:37:01;;;;;;;7.87;2.92;;;;;;;1.46;61.01;101220.25;1691828;84;25824;-61
2022/04/18 02:39:30;;;;;;;7.42;2.37;;;;;;;1.33;61.98;101206.66;1692082;84;27645;-61
2022/04/18 02:41:58;;;;;;;6.37;3.10;;;;;;;1.21;61.88;101202.72;1691877;84;25789;-61
2022/04/18 02:44:26;;;;;;;4.53;2.80;;;;;;;1.22;62.07;101207.58;1692131;84;25709;-61
2022/04/18 02:46:55;;;;;;;5.55;2.60;;;;;;;1.25;61.67;101212.76;1692341;84;25702;-61
2022/04/18 02:49:22;;;;;;;7.72;3.08;;;;;;;1.36;61.50;101206.98;1748822;81;26601;-61
2022/04/18 02:51:49;;;;;;;6.83;3.12;;;;;;;1.48;61.21;101208.23;1730000;81;27463;-61
2022/04/18 02:54:18;;;;;;;5.25;2.92;;;;;;;1.52;61.17;101208.52;1730102;81;25729;-61
2022/04/18 02:56:44;;;;;;;8.95;2.75;;;;;;;1.58;61.04;101204.27;1730144;81;25546;-61
2022/04/18 02:59:12;;;;;;;4.45;3.17;;;;;;;1.68;60.76;101207.36;1738752;82;26373;-61
2022/04/18 03:01:39;;;;;;;4.75;3.33;;;;;;;1.70;61.06;101210.81;1705088;84;26006;-61
2022/04/18 03:04:06;;;;;;;5.85;3.33;;;;;;;1.72;60.97;101208.95;1740813;81;28181;-61
2022/04/18 03:06:33;;;;;;;5.53;2.72;;;;;;;1.69;61.01;101203.33;1704916;82;25488;-61
2022/04/18 03:09:00;;;;;;;5.78;3.30;;;;;;;1.59;61.04;101203.34;1740888;82;25815;-61
2022/04/18 03:11:27;;;;;;;6.53;3.65;;;;;;;1.49;61.45;101205.52;1705047;84;25829;-61
2022/04/18 03:13:55;;;;;;;7.35;2.62;;;;;;;1.37;61.70;101207.39;1705299;84;27302;-61
2022/04/18 03:16:36;;;;;;;12.45;3.35;;;;;;;1.22;62.17;101204.45;1705728;83;29696;-61
2022/04/18 03:19:03;;;;;;;11.15;3.12;;;;;;;1.01;63.71;101212.84;1740927;81;25459;-61
2022/04/18 03:21:31;;;;;;;8.68;3.92;;;;;;;0.87;63.45;101213.41;1705286;82;25868;-62
2022/04/18 03:24:00;;;;;;;6.40;3.75;;;;;;;0.80;63.70;101206.64;1688370;83;26244;-61
2022/04/18 03:26:29;;;;;;;5.87;3.50;;;;;;;0.74;63.95;101207.75;1740006;80;25952;-61
2022/04/18 03:29:00;;;;;;;5.28;3.72;;;;;;;0.66;64.65;101200.58;1724952;80;28556;-61
2022/04/18 03:31:27;;;;;;;8.60;4.95;;;;;;;0.58;64.65;101203.52;1740969;81;25656;-61
2022/04/18 03:33:55;;;;;;;5.78;4.12;;;;;;;0.57;64.45;101209.77;1741119;81;25786;-61
2022/04/18 03:41:52;;;;;;;6.30;4.33;;;;;;;0.43;64.99;101207.67;1741304;81;27692;-61
2022/04/18 03:44:19;;;;;;;10.35;5.37;;;;;;;0.47;64.97;101203.11;1740996;82;25866;-61
2022/04/18 03:46:47;;;;;;;9.65;4.58;;;;;;;0.43;64.95;101209.44;1741393;80;25771;-61
2022/04/18 03:49:14;;;;;;;8.35;4.00;;;;;;;0.39;65.24;101206.05;1698697;84;25630;-61
2022/04/18 03:51:43;;;;;;;8.98;4.40;;;;;;;0.38;65.08;101210.09;1677208;84;25754;-61
2022/04/18 03:54:12;;;;;;;12.98;4.85;;;;;;;0.42;64.87;101201.09;1711221;83;29606;-61
2022/04/18 03:56:39;;;;;;;8.53;3.98;;;;;;;0.49;64.83;101207.02;1677114;84;25725;-61
2022/04/18 03:59:10;;;;;;;8.55;3.65;;;;;;;0.55;64.91;101199.70;1725672;82;25751;-60
2022/04/18 04:01:55;;;;;;;7.35;3.17;;;;;;;0.69;64.95;101211.51;1730319;81;25764;-61
2022/04/18 04:04:23;;;;;;;12.98;3.40;;;;;;;0.76;64.26;101202.42;1730184;81;26295;-62
2022/04/18 04:06:50;;;;;;;17.35;4.12;;;;;;;0.74;63.98;101204.25;1730084;81;27657;-61
2022/04/18 04:09:17;;;;;;;5.50;3.83;;;;;;;0.71;64.25;101199.08;1730005;82;25755;-61
2022/04/18 04:11:44;;;;;;;17.27;7.35;;;;;;;0.72;64.27;101200.33;1730461;82;25652;-60
2022/04/18 04:14:12;;;;;;;7.40;4.20;;;;;;;0.72;63.97;101206.09;1730100;81;26199;-61
2022/04/18 04:16:39;;;;;;;8.18;4.85;;;;;;;0.70;64.37;101199.99;1730344;82;25823;-61
2022/04/18 04:19:07;;;;;;;12.55;4.58;;;;;;;0.75;64.41;101203.34;1730081;82;27502;-60
2022/04/18 04:21:39;;;;;;;12.43;3.77;;;;;;;0.72;64.14;101202.13;1730239;81;25793;-60
2022/04/18 04:24:05;;;;;;;7.75;3.33;;;;;;;0.66;64.13;101197.09;1739868;82;25767;-60
2022/04/18 04:26:34;;;;;;;9.73;3.72;;;;;;;0.58;63.91;101195.58;1740991;81;26626;-60
2022/04/18 04:29:01;;;;;;;12.78;4.28;;;;;;;0.51;64.07;101199.41;1705323;84;25663;-60
2022/04/18 04:31:30;;;;;;;6.83;3.72;;;;;;;0.44;64.19;101195.28;1708727;82;27512;-61
2022/04/18 04:33:58;;;;;;;14.18;5.10;;;;;;;0.47;64.76;101200.47;1748750;80;26070;-61
2022/04/18 04:36:28;;;;;;;7.05;4.22;;;;;;;0.52;64.51;101194.98;1748621;80;25832;-62
2022/04/18 04:38:56;;;;;;;5.33;3.83;;;;;;;0.63;64.69;101196.72;1748932;82;25508;-60
2022/04/18 04:41:25;;;;;;;8.40;3.87;;;;;;;0.75;64.59;101194.91;1748087;80;25719;-61
2022/04/18 04:43:54;;;;;;;11.38;4.83;;;;;;;0.91;64.31;101192.95;1748491;81;29616;-60
2022/04/18 04:46:22;;;;;;;12.70;4.47;;;;;;;1.01;63.83;101190.32;1748167;81;27406;-61
2022/04/18 04:48:51;;;;;;;9.70;4.28;;;;;;;1.05;63.67;101189.73;1741549;82;25770;-61
2022/04/18 04:51:20;;;;;;;6.42;4.22;;;;;;;1.16;63.56;101188.81;1729800;81;25792;-61
2022/04/18 04:53:51;;;;;;;8.03;4.30;;;;;;;1.26;63.31;101193.25;1703197;81;25916;-61
2022/04/18 04:56:21;;;;;;;8.75;4.47;;;;;;;1.37;62.98;101186.18;1728201;82;27540;-61
2022/04/18 04:58:49;;;;;;;7.87;4.28;;;;;;;1.40;62.56;101180.28;1741747;82;25795;-61
2022/04/18 05:01:17;;;;;;;7.62;4.33;;;;;;;1.39;62.28;101183.86;1748924;82;25748;-61
2022/04/18 05:03:52;;;;;;;6.95;4.47;;;;;;;1.37;62.18;101182.20;1747765;80;27631;-61
2022/04/18 05:06:19;;;;;;;10.90;6.17;;;;;;;1.34;61.81;101182.33;1748899;82;25712;-61
2022/04/18 05:08:47;;;;;;;11.25;5.12;;;;;;;1.21;61.95;101184.64;1749227;82;27620;-61
2022/04/18 05:11:15;;;;;;;15.93;6.25;;;;;;;1.12;61.98;101189.86;1748809;82;26452;-60
2022/04/18 05:13:50;;;;;;;10.45;5.25;;;;;;;1.02;62.30;101194.70;1747639;81;25818;-60
2022/04/18 05:16:18;;;;;;;16.90;4.78;;;;;;;0.94;62.54;101188.38;1748805;82;25796;-60
2022/04/18 05:18:50;;;;;;;7.75;4.92;;;;;;;0.96;62.78;101189.66;1748581;81;25723;-61
2022/04/18 05:21:17;;;;;;;15.83;5.05;;;;;;;0.98;63.01;101194.89;1748862;82;27564;-61
2022/04/18 05:23:44;;;;;;;11.85;5.97;;;;;;;0.99;62.85;101184.70;1749244;82;25624;-59
2022/04/18 05:26:12;;;;;;;13.35;6.05;;;;;;;1.13;62.92;101180.98;1748937;80;25522;-61
2022/04/18 05:28:41;;;;;;;13.62;6.12;;;;;;;1.34;63.00;101180.55;1748850;82;26137;-61
2022/04/18 05:31:10;;;;;;;13.50;5.80;;;;;;;1.47;62.64;101179.55;1746623;80;25739;-61
2022/04/18 05:33:39;;;;;;;13.38;6.40;;;;;;;1.58;62.34;101180.84;1740864;80;27693;-61
2022/04/18 05:36:14;;;;;;;9.03;5.78;;;;;;;1.70;62.10;101173.67;1715551;81;27304;-61
2022/04/18 05:38:40;;;;;;;17.35;6.50;;;;;;;1.83;61.91;101175.30;1740856;80;25724;-61
2022/04/18 05:41:15;;;;;;;10.90;5.90;;;;;;;1.85;61.33;101175.63;1741114;81;26415;-61
2022/04/18 05:43:43;;;;;;;14.47;5.97;;;;;;;1.75;61.08;101169.01;1740958;82;25977;-62
2022/04/18 05:46:10;;;;;;;21.75;6.10;;;;;;;1.67;61.17;101164.52;1741090;81;27578;-61
2022/04/18 05:48:37;;;;;;;19.92;6.35;;;;;;;1.61;61.35;101157.73;1740922;82;25743;-61
2022/04/18 05:51:05;;;;;;;12.05;5.92;;;;;;;1.61;61.28;101161.70;1730052;82;25806;-61
2022/04/18 05:53:32;;;;;;;11.18;5.58;;;;;;;1.68;61.45;101156.52;1705259;84;25799;-61
2022/04/18 05:56:05;;;;;;;14.43;6.35;;;;;;;1.82;61.44;101163.84;1740728;82;25772;-61
2022/04/18 05:58:43;;;;;;;19.73;5.90;;;;;;;1.98;61.11;101158.67;1734441;81;28227;-61
2022/04/18 06:01:19;;;;;;;24.43;6.50;;;;;;;2.05;60.73;101157.92;1727200;82;25756;-61
2022/04/18 06:03:47;;;;;;;17.62;6.10;;;;;;;2.15;60.55;101155.23;1730446;81;25852;-60
2022/04/18 06:06:15;;;;;;;19.35;8.80;;;;;;;2.28;60.32;101150.69;1730209;81;25677;-61
2022/04/18 06:08:42;;;;;;;14.78;8.05;;;;;;;2.25;59.98;101156.98;1730613;81;25745;-61
2022/04/18 06:11:11;;;;;;;10.58;5.78;;;;;;;2.27;60.01;101159.58;1729871;82;28789;-60
2022/04/18 06:13:40;;;;;;;13.28;5.75;;;;;;;2.36;59.93;101155.16;1713947;82;26073;-61
2022/04/18 06:16:08;;;;;;;17.02;6.42;;;;;;;2.45;59.82;101152.52;1709582;82;25801;-61
2022/04/18 06:18:35;;;;;;;20.17;5.90;;;;;;;2.53;59.60;101152.99;1730368;81;25656;-61
2022/04/18 06:21:04;;;;;;;16.07;6.33;;;;;;;2.55;59.63;101152.46;1729899;82;25946;-61
2022/04/18 06:23:32;;;;;;;17.77;5.87;;;;;;;2.62;59.64;101155.20;1737635;82;27505;-61
2022/04/18 06:26:18;;;;;;;16.80;6.40;;;;;;;2.71;59.61;101150.38;1696982;84;26654;-61
2022/04/18 06:28:46;;;;;;;16.52;6.83;;;;;;;2.82;59.24;101155.53;1697660;84;25787;-61
2022/04/18 06:31:13;;;;;;;14.68;6.10;;;;;;;2.75;58.81;101154.61;1711897;81;25805;-61
2022/04/18 06:33:44;;;;;;;12.65;6.10;;;;;;;2.78;58.92;101155.31;1748705;81;26571;-61
2022/04/18 06:36:12;;;;;;;10.85;6.08;;;;;;;2.87;58.82;101151.80;1747860;81;27638;-61
2022/04/18 06:38:43;;;;;;;18.20;6.28;;;;;;;2.91;58.90;101144.92;1758975;81;25699;-61
2022/04/18 06:41:12;;;;;;;16.15;7.47;;;;;;;3.02;58.60;101142.20;1760221;81;25806;-61
2022/04/18 06:43:38;;;;;;;14.05;6.30;;;;;;;3.14;58.07;101148.19;1761578;81;26035;-61
2022/04/18 06:46:07;;;;;;;17.00;6.37;;;;;;;3.20;58.41;101144.36;1761154;81;25806;-61
2022/04/18 06:48:35;;;;;;;21.30;6.45;;;;;;;3.20;58.17;101143.03;1761217;81;27512;-61
2022/04/18 06:51:20;;;;;;;15.35;7.08;;;;;;;3.22;58.13;101142.49;1729993;81;25740;-61
2022/04/18 06:54:02;;;;;;;19.67;6.33;;;;;;;3.37;58.10;101139.02;1730264;82;25745;-61
2022/04/18 06:59:28;;;;;;;18.20;6.58;;;;;;;3.62;57.76;101133.75;1739470;82;25704;-61
2022/04/18 07:01:58;;;;;;;17.30;6.58;;;;;;;3.74;57.26;101121.09;1705396;84;27464;-60
2022/04/18 07:04:26;;;;;;;12.30;6.58;;;;;;;3.81;57.04;101124.78;1740896;81;25787;-60
2022/04/18 07:06:53;;;;;;;16.07;5.80;;;;;;;3.88;57.11;101120.34;1705508;83;25825;-61
2022/04/18 07:09:22;;;;;;;25.92;11.10;;;;;;;3.87;56.92;101123.10;1741057;82;25762;-60
2022/04/18 07:11:51;;;;;;;18.17;6.87;;;;;;;3.90;57.05;101113.14;1741188;81;25783;-60
2022/04/18 07:14:20;;;;;;;16.07;7.72;;;;;;;4.01;56.89;101111.20;1705319;84;27538;-60
2022/04/18 07:16:49;;;;;;;19.48;6.20;;;;;;;4.10;56.92;101118.29;1705514;84;26561;-60
2022/04/18 07:19:18;;;;;;;13.40;5.47;;;;;;;4.17;56.71;101114.36;1705021;82;25721;-60
2022/04/18 07:21:45;;;;;;;18.10;5.97;;;;;;;4.19;56.13;101109.79;1741010;82;25784;-61
2022/04/18 07:24:13;;;;;;;16.95;6.47;;;;;;;4.24;56.28;101107.73;1703159;84;25836;-61
2022/04/18 07:26:41;;;;;;;14.63;5.85;;;;;;;4.37;56.28;101109.23;1678964;85;27494;-60
2022/04/18 07:29:08;;;;;;;19.57;6.28;;;;;;;4.49;56.14;101105.00;1676954;85;25485;-61
2022/04/18 07:31:35;;;;;;;23.90;6.42;;;;;;;4.56;55.93;101111.69;1711539;83;26449;-61
2022/04/18 07:34:02;;;;;;;17.20;5.92;;;;;;;4.64;55.82;101109.92;1676822;85;26441;-60
2022/04/18 07:36:29;;;;;;;17.02;6.17;;;;;;;4.68;55.33;101098.98;1677078;85;25524;-61
2022/04/18 07:38:57;;;;;;;16.30;5.80;;;;;;;4.73;55.29;101100.05;1676864;85;27488;-61
2022/04/18 07:41:29;;;;;;;14.00;6.25;;;;;;;4.80;55.06;101088.07;1676435;85;25845;-61
2022/04/18 07:43:58;;;;;;;16.37;6.30;;;;;;;4.92;54.73;101082.97;1678615;84;25745;-61
2022/04/18 07:46:25;;;;;;;19.30;5.53;;;;;;;5.04;54.52;101076.03;1676985;85;26756;-60
2022/04/18 07:48:54;;;;;;;14.93;5.87;;;;;;;5.15;53.72;101070.42;1679624;84;25654;-61
2022/04/18 07:51:38;;;;;;;12.40;5.47;;;;;;;5.25;53.65;101065.37;1741088;82;27597;-61
2022/04/18 07:54:09;;;;;;;9.90;4.97;;;;;;;5.32;53.30;101062.73;1740492;81;27232;-61
2022/04/18 07:56:36;;;;;;;8.95;3.77;;;;;;;5.51;53.27;101057.58;1705329;84;25760;-63
2022/04/18 07:59:04;;;;;;;7.47;3.77;;;;;;;5.67;52.37;101048.10;1733406;82;25721;-61
2022/04/18 08:01:33;;;;;;;8.38;3.35;;;;;;;5.84;52.20;101051.50;1730081;81;26361;-60
2022/04/18 08:04:02;;;;;;;10.60;5.03;;;;;;;5.98;50.80;101042.14;1730352;81;27397;-61
2022/04/18 08:06:33;;;;;;;9.38;3.98;;;;;;;6.10;49.45;101051.20;1730148;81;26436;-60
2022/04/18 08:09:02;;;;;;;10.15;4.78;;;;;;;6.21;49.88;101044.67;1726297;82;25788;-60
2022/04/18 08:11:29;;;;;;;8.45;4.08;;;;;;;6.34;49.21;101038.03;1730244;81;25780;-60
2022/04/18 08:13:56;;;;;;;11.85;4.08;;;;;;;6.49;48.67;101025.47;1730235;82;25474;-60
2022/04/18 08:16:37;;;;;;;9.83;4.28;;;;;;;6.76;49.02;101022.34;1728917;81;27654;-61
2022/04/18 08:19:06;;;;;;;9.93;4.03;;;;;;;7.05;48.99;101022.53;1729928;80;25840;-61
2022/04/18 08:21:34;;;;;;;5.05;3.17;;;;;;;7.29;48.20;101023.59;1730176;81;25696;-61
2022/04/18 08:24:04;;;;;;;6.55;3.37;;;;;;;7.51;48.42;101015.72;1740059;81;26488;-60
2022/04/18 08:26:36;;;;;;;10.03;3.42;;;;;;;7.69;46.54;101012.67;1748550;81;26022;-61
2022/04/18 08:29:11;;;;;;;11.12;4.08;;;;;;;7.89;46.83;101013.05;1740071;81;27607;-60
2022/04/18 08:31:40;;;;;;;6.70;3.17;;;;;;;8.12;46.08;100995.27;1749179;80;26329;-61
2022/04/18 08:34:09;;;;;;;7.05;3.00;;;;;;;8.29;44.54;100996.70;1738998;81;25914;-60
2022/04/18 08:36:36;;;;;;;6.17;2.85;;;;;;;8.45;43.02;100997.70;1756472;81;25796;-61
2022/04/18 08:39:04;;;;;;;4.70;2.80;;;;;;;8.77;41.89;100993.92;1750908;81;25877;-60
2022/04/18 08:41:52;;;;;;;7.50;3.37;;;;;;;9.11;40.99;100990.91;1748609;80;27661;-60
2022/04/18 08:44:22;;;;;;;7.50;3.62;;;;;;;9.24;41.00;100980.41;1739620;81;25742;-60
2022/04/18 08:46:50;;;;;;;5.92;3.47;;;;;;;9.45;39.07;100976.99;1739709;82;25736;-60
2022/04/18 08:54:52;;;;;;;8.55;3.22;;;;;;;10.09;38.93;100971.34;1705204;84;27932;-61
2022/04/18 08:57:20;;;;;;;9.58;3.12;;;;;;;10.31;37.18;100970.86;1740465;81;25791;-61
2022/04/18 08:59:47;;;;;;;6.40;3.10;;;;;;;10.51;39.06;100973.27;1736919;82;26135;-60
2022/04/18 09:02:15;;;;;;;8.75;2.80;;;;;;;10.75;37.49;100955.98;1705291;83;26577;-61
2022/04/18 09:04:49;;;;;;;4.45;2.62;;;;;;;10.59;36.07;100958.66;1703108;83;25816;-61
2022/04/18 09:07:16;;;;;;;8.63;2.70;;;;;;;10.39;36.80;100944.23;1740801;82;27509;-61
2022/04/18 09:09:45;;;;;;;8.23;2.90;;;;;;;10.73;36.59;100947.18;1704841;83;25639;-61
2022/04/18 09:12:22;;;;;;;3.92;2.58;;;;;;;11.14;35.53;100945.89;1740777;81;25788;-61
2022/04/18 09:14:51;;;;;;;7.03;2.20;;;;;;;11.59;34.52;100937.38;1703443;83;26597;-62
2022/04/18 09:17:37;;;;;;;5.28;2.22;;;;;;;11.59;31.95;100923.91;1740943;82;25687;-62
2022/04/18 09:20:21;;;;;;;4.40;2.52;;;;;;;11.37;31.96;100927.21;1749499;81;27513;-61
2022/04/18 09:22:50;;;;;;;4.42;2.58;;;;;;;11.08;32.52;100944.11;1756093;80;25981;-61
2022/04/18 09:25:22;;;;;;;3.75;1.90;;;;;;;10.88;31.87;100928.85;1756372;81;25826;-61
2022/04/18 09:27:59;;;;;;;4.92;1.90;;;;;;;10.92;32.64;100927.61;1748582;81;26526;-61
2022/04/18 09:30:32;;;;;;;5.20;1.35;;;;;;;10.92;32.42;100932.48;1699706;83;25789;-61
2022/04/18 09:33:07;;;;;;;7.10;1.80;;;;;;;10.86;31.21;100932.16;1751203;80;28217;-61
2022/04/18 09:35:38;;;;;;;3.10;1.50;;;;;;;11.58;31.05;100925.77;1740506;81;26048;-61
2022/04/18 09:38:12;;;;;;;2.98;1.55;;;;;;;12.78;30.28;100914.77;1705354;84;25775;-61
2022/04/18 09:40:51;;;;;;;5.53;1.70;;;;;;;13.88;29.61;100902.25;1650047;84;25843;-62
2022/04/18 09:43:22;;;;;;;4.92;1.55;;;;;;;14.12;26.94;100898.05;1704161;84;25772;-61
2022/04/18 09:45:51;;;;;;;4.95;1.70;;;;;;;14.20;27.83;100895.92;1752994;81;27435;-62
2022/04/18 09:48:21;;;;;;;3.20;1.60;;;;;;;14.96;26.50;100899.80;1705151;84;25851;-62
2022/04/18 09:51:01;;;;;;;4.50;1.00;;;;;;;15.18;26.97;100895.66;1737402;80;25776;-62
2022/04/18 09:53:41;;;;;;;5.15;1.70;;;;;;;15.94;27.23;100906.55;1739800;81;25881;-62
2022/04/18 09:56:14;;;;;;;2.00;1.27;;;;;;;16.77;24.24;100890.19;1745193;81;25642;-62
2022/04/18 09:58:41;;;;;;;3.17;1.60;;;;;;;17.40;23.88;100893.51;1755581;81;27457;-61
2022/04/18 10:01:10;;;;;;;4.72;1.87;;;;;;;17.77;22.04;100888.70;1744460;81;25781;-62
2022/04/18 10:03:39;;;;;;;7.65;1.90;;;;;;;18.50;23.35;100878.74;1704395;83;25740;-62
2022/04/18 10:06:08;;;;;;;4.42;1.72;;;;;;;19.30;21.10;100874.95;1756561;80;25787;-62
2022/04/18 10:08:36;;;;;;;3.35;1.75;;;;;;;19.74;19.76;100879.09;1756173;81;25774;-62
2022/04/18 10:11:08;;;;;;;2.87;1.70;;;;;;;18.75;21.42;100873.88;1756515;81;27467;-62
2022/04/18 10:13:36;;;;;;;2.80;1.65;;;;;;;17.91;20.57;100859.86;1756303;80;25844;-62
2022/04/18 10:16:06;;;;;;;3.17;1.60;;;;;;;18.26;21.85;100859.40;1752270;81;25894;-61
2022/04/18 10:18:41;;;;;;;4.30;1.52;;;;;;;18.23;20.64;100866.06;1701362;83;25768;-62
2022/04/18 10:21:13;;;;;;;7.75;1.40;;;;;;;17.34;21.65;100873.34;1755100;81;25832;-61
2022/04/18 10:24:33;;;;;;;2.80;1.30;;;;;;;17.71;21.44;100875.80;1705056;82;27486;-62
2022/04/18 10:27:31;;;;;;;2.27;1.30;;;;;;;18.53;20.81;100865.27;1740553;82;25827;-61
2022/04/18 10:30:02;;;;;;;4.92;1.85;;;;;;;19.36;18.82;100859.70;1704892;83;25843;-62
2022/04/18 10:32:30;;;;;;;4.25;2.20;;;;;;;19.78;19.02;100862.12;1753652;80;25973;-62
2022/04/18 10:35:00;;;;;;;7.67;1.80;;;;;;;20.03;18.57;100854.09;1710271;83;25835;-62
2022/04/18 10:37:30;;;;;;;10.85;1.75;;;;;;;20.43;18.31;100855.75;1761262;80;27556;-62
2022/04/18 10:40:06;;;;;;;5.20;1.15;;;;;;;19.97;18.25;100850.26;1757950;81;25751;-63
2022/04/18 10:42:36;;;;;;;3.60;1.32;;;;;;;18.87;17.26;100851.09;1748789;82;25696;-62
2022/04/18 10:45:11;;;;;;;5.03;1.17;;;;;;;17.55;18.95;100863.19;1760279;81;26074;-62
2022/04/18 10:48:08;;;;;;;7.72;1.10;;;;;;;16.86;19.22;100857.89;1709016;83;25733;-61
2022/04/18 10:50:45;;;;;;;3.35;1.42;;;;;;;16.58;20.34;100852.05;1733873;81;27462;-62
2022/04/18 10:53:27;;;;;;;12.07;1.60;;;;;;;16.97;20.48;100840.91;1742180;82;25791;-62
2022/04/18 10:55:59;;;;;;;3.77;1.10;;;;;;;18.23;19.40;100838.01;1751558;81;25505;-62
2022/04/18 10:58:29;;;;;;;1.47;1.10;;;;;;;17.94;17.95;100834.15;1719786;82;25770;-62
2022/04/18 11:01:02;;;;;;;2.25;1.00;;;;;;;17.47;18.07;100846.39;1718929;82;25840;-62
2022/04/18 11:03:57;;;;;;;2.20;1.00;;;;;;;16.93;19.14;100851.28;1748941;82;33602;-62
2022/04/18 11:06:32;;;;;;;3.98;1.25;;;;;;;16.59;18.51;100842.85;1713034;83;25812;-62
2022/04/18 11:09:07;;;;;;;3.33;1.40;;;;;;;16.88;18.54;100838.69;1749068;80;26591;-61
2022/04/18 11:11:44;;;;;;;4.67;1.67;;;;;;;17.76;18.99;100831.73;1727405;82;25808;-62
2022/04/18 11:14:26;;;;;;;3.12;1.50;;;;;;;17.38;19.36;100825.72;1737104;81;25501;-61
2022/04/18 11:17:00;;;;;;;3.80;1.40;;;;;;;16.92;19.17;100829.17;1757010;81;27484;-61
2022/04/18 11:19:30;;;;;;;8.48;1.90;;;;;;;16.07;20.34;100841.44;1758767;81;25664;-62
2022/04/18 11:22:04;;;;;;;8.88;1.62;;;;;;;15.29;21.15;100846.24;1712732;83;25730;-62
2022/04/18 11:24:54;;;;;;;2.35;1.65;;;;;;;14.76;21.00;100836.92;1758807;80;25944;-62
2022/04/18 11:27:30;;;;;;;9.80;2.00;;;;;;;14.25;21.96;100842.17;1761761;80;25459;-62
2022/04/18 11:30:11;;;;;;;3.47;1.27;;;;;;;14.07;23.02;100836.81;1761582;80;28511;-62
2022/04/18 11:32:47;;;;;;;5.47;1.42;;;;;;;14.37;22.61;100840.05;1761492;80;25759;-61
2022/04/18 11:35:15;;;;;;;2.37;1.22;;;;;;;14.95;21.54;100833.61;1753371;81;25800;-62
2022/04/18 11:37:45;;;;;;;3.58;1.77;;;;;;;15.31;21.23;100831.51;1689973;83;25841;-61
2022/04/18 11:40:16;;;;;;;3.92;1.70;;;;;;;15.12;19.54;100831.78;1694188;84;25810;-61
2022/04/18 11:42:45;;;;;;;9.40;1.60;;;;;;;14.35;20.19;100822.63;1705232;83;27468;-62
2022/04/18 11:45:26;;;;;;;7.87;1.95;;;;;;;14.61;21.04;100830.39;1712054;83;25803;-61
2022/04/18 11:47:54;;;;;;;2.55;1.30;;;;;;;15.76;20.94;100820.37;1712782;83;25640;-62
2022/04/18 11:50:24;;;;;;;23.07;1.95;;;;;;;17.22;19.95;100810.34;1694150;82;26742;-62
2022/04/18 11:53:04;;;;;;;2.15;1.45;;;;;;;17.52;20.01;100802.34;1714452;83;26036;-62
2022/04/18 11:55:32;;;;;;;5.80;1.32;;;;;;;17.66;19.24;100796.09;1705866;83;27526;-62
2022/04/18 11:57:59;;;;;;;6.15;1.95;;;;;;;17.41;18.87;100796.81;1707007;82;25856;-62
2022/04/18 12:08:46;;;;;;;5.25;2.17;;;;;;;16.85;19.80;100796.95;1664816;86;27460;-62
2022/04/18 12:11:13;;;;;;;11.28;2.05;;;;;;;17.60;20.05;100792.75;1664897;84;25803;-62
2022/04/18 12:13:46;;;;;;;5.30;1.70;;;;;;;17.54;18.96;100797.57;1756444;80;25772;-62
2022/04/18 12:16:18;;;;;;;5.67;1.57;;;;;;;16.89;19.99;100797.77;1756386;81;25934;-62